Time;durP1;ratioP1;P1;durP2;ratioP2;P2;SDS_P1;SDS_P2;PMS_P1;PMS_P2;Temp;Humidity;BMP_temperature;BMP_pressure;BME280_temperature;BME280_humidity;BME280_pressure;Samples;Min_cycle;Max_cycle;Signal;HPM_P1;HPM_P2
2022/10/02 00:01:26;;;;;;;22.52;6.10;;;17.30;99.90;;;17.71;79.01;101220.09;5053374;28;20064;-66
2022/10/02 00:03:58;;;;;;;25.05;5.97;;;17.40;99.90;;;17.64;78.75;101214.97;5052266;28;20053;-66
2022/10/02 00:06:40;;;;;;;20.00;5.80;;;17.40;99.90;;;17.64;78.73;101186.44;5053270;28;20476;-67
2022/10/02 00:09:16;;;;;;;22.50;6.32;;;17.50;99.90;;;17.82;78.84;101234.09;5053272;28;20261;-66
2022/10/02 00:11:49;;;;;;;19.55;5.45;;;17.50;99.90;;;17.90;78.41;101225.84;5052591;28;20478;-66
2022/10/02 00:14:20;;;;;;;21.48;6.50;;;17.60;99.90;;;17.98;78.31;101226.50;5053392;28;20489;-66
2022/10/02 00:16:52;;;;;;;22.33;5.95;;;17.70;99.90;;;17.92;78.37;101222.16;5053253;28;20040;-67
2022/10/02 00:19:22;;;;;;;23.35;6.45;;;17.60;99.90;;;17.89;78.14;101221.38;5053012;28;20051;-66
2022/10/02 00:22:26;;;;;;;35.60;6.10;;;17.60;99.90;;;17.84;78.40;101232.25;5053198;28;20479;-66
2022/10/02 00:25:04;;;;;;;31.08;6.93;;;17.60;99.90;;;17.87;78.39;101236.59;5053134;28;20378;-67
2022/10/02 00:27:53;;;;;;;27.85;6.50;;;17.50;99.90;;;17.91;78.23;101244.53;5052897;28;20048;-67
2022/10/02 00:30:21;;;;;;;27.83;6.97;;;17.60;99.90;;;17.91;78.45;101243.63;5052760;28;20102;-67
2022/10/02 00:33:03;;;;;;;22.52;6.60;;;17.60;99.90;;;17.79;77.96;101201.16;5052844;28;20098;-67
2022/10/02 00:35:51;;;;;;;22.58;6.55;;;17.60;99.90;;;17.87;77.69;101220.56;5052915;28;20045;-67
2022/10/02 00:38:35;;;;;;;22.48;6.10;;;17.70;99.90;;;18.05;77.76;101252.16;5052771;28;20045;-66
2022/10/02 00:41:36;;;;;;;28.00;6.22;;;17.70;99.90;;;18.00;77.96;101246.06;5052861;28;20470;-66
2022/10/02 00:44:30;;;;;;;27.77;6.07;;;17.70;99.90;;;17.94;77.89;101254.28;5036831;28;20156;-66
2022/10/02 00:47:05;;;;;;;25.05;6.03;;;17.70;99.90;;;17.92;78.38;101253.44;5050970;28;20490;-66
2022/10/02 00:49:57;;;;;;;24.48;6.10;;;17.60;99.90;;;18.06;77.84;101250.38;5052834;28;20051;-66
2022/10/02 00:52:52;;;;;;;25.55;6.35;;;17.70;99.90;;;18.06;77.68;101245.88;5052643;28;20059;-66
2022/10/02 00:55:47;;;;;;;20.95;6.45;;;17.70;99.90;;;18.13;77.69;101241.22;5052373;28;20040;-66
2022/10/02 00:59:02;;;;;;;23.10;6.30;;;17.80;99.90;;;18.06;77.76;101247.69;5053010;28;20040;-66
2022/10/02 01:01:41;;;;;;;26.75;7.43;;;17.80;99.90;;;18.14;77.74;101251.88;5038690;28;20526;-67
2022/10/02 01:04:13;;;;;;;22.95;5.70;;;17.80;99.90;;;18.08;78.23;101257.41;5052506;28;20053;-66
2022/10/02 01:06:42;;;;;;;23.92;6.18;;;17.80;99.90;;;17.94;78.50;101254.28;5052927;28;20057;-67
2022/10/02 01:09:12;;;;;;;20.63;5.78;;;17.70;99.90;;;17.81;78.33;101226.97;5052388;28;20041;-66
2022/10/02 01:11:40;;;;;;;26.30;7.20;;;17.70;99.90;;;17.96;78.64;101257.78;5052465;28;20048;-66
2022/10/02 01:14:09;;;;;;;27.65;6.68;;;17.60;99.90;;;17.91;78.69;101257.00;5052181;28;20106;-66
2022/10/02 01:16:40;;;;;;;31.52;6.70;;;17.60;99.90;;;17.93;78.72;101242.69;5052543;28;20135;-66
2022/10/02 01:19:21;;;;;;;21.45;6.45;;;17.70;99.90;;;17.99;78.56;101246.97;5052373;28;20049;-66
2022/10/02 01:21:51;;;;;;;;;;;17.70;99.90;;;17.95;78.18;101256.00;5052849;28;20048;-66
2022/10/02 01:24:27;;;;;;;27.45;6.28;;;17.70;99.90;;;17.90;78.64;101257.94;5055558;28;19928;-66
2022/10/02 01:26:57;;;;;;;27.15;6.22;;;17.60;99.90;;;17.87;78.39;101252.66;5056758;28;20045;-66
2022/10/02 01:29:26;;;;;;;26.45;5.82;;;17.60;99.90;;;17.97;78.29;101256.84;5056208;28;20048;-66
2022/10/02 01:31:56;;;;;;;20.27;6.28;;;17.70;99.90;;;17.86;78.35;101256.28;5054993;28;20045;-66
2022/10/02 01:34:24;;;;;;;27.67;6.50;;;17.60;99.90;;;17.96;78.10;101257.78;5056086;28;20049;-66
2022/10/02 01:36:53;;;;;;;23.58;6.32;;;17.60;99.90;;;17.91;78.63;101262.38;5055981;28;20049;-66
2022/10/02 01:39:22;;;;;;;25.33;6.00;;;17.60;99.90;;;18.02;78.15;101269.19;5056182;28;20053;-66
2022/10/02 01:41:50;;;;;;;23.73;6.00;;;17.70;99.90;;;17.98;78.45;101266.66;5056034;28;20383;-66
2022/10/02 01:44:20;;;;;;;21.05;5.65;;;17.70;99.90;;;18.12;78.10;101275.16;5056316;28;20395;-66
2022/10/02 01:46:59;;;;;;;24.05;6.85;;;17.80;99.90;;;18.04;78.24;101269.13;5054388;28;20057;-67
2022/10/02 01:49:55;;;;;;;24.45;6.55;;;17.70;99.90;;;18.15;78.15;101269.72;5055873;28;20091;-67
2022/10/02 01:52:38;;;;;;;22.05;6.07;;;17.80;99.90;;;18.20;78.07;101289.19;5055856;28;20045;-67
2022/10/02 01:55:23;;;;;;;27.48;7.32;;;17.80;99.90;;;18.20;78.18;101289.19;5055847;28;20080;-66
2022/10/02 01:58:06;;;;;;;19.25;6.00;;;17.90;99.90;;;18.13;78.51;101287.63;5055978;28;20056;-67
2022/10/02 02:00:50;;;;;;;24.65;6.07;;;17.80;99.90;;;18.15;78.28;101277.75;5055835;28;20049;-67
2022/10/02 02:03:24;;;;;;;24.05;6.00;;;17.80;99.90;;;18.12;78.51;101288.53;5055688;28;20041;-66
2022/10/02 02:06:01;;;;;;;34.95;7.60;;;17.80;99.90;;;18.09;78.63;101288.63;5055601;28;20051;-66
2022/10/02 02:08:37;;;;;;;29.95;6.22;;;17.80;99.90;;;17.89;79.24;101280.28;5055554;28;20041;-66
2022/10/02 02:11:13;;;;;;;26.40;6.68;;;17.60;99.90;;;16.24;78.96;100992.41;5055712;28;20073;-67
2022/10/02 02:13:46;;;;;;;29.00;7.55;;;17.60;99.90;;;17.88;79.12;101276.75;5055439;28;20513;-66
2022/10/02 02:16:25;;;;;;;21.75;6.18;;;17.60;99.90;;;17.99;79.11;101285.34;5055379;28;20111;-66
2022/10/02 02:19:01;;;;;;;25.73;6.85;;;17.60;99.90;;;17.92;78.93;101282.88;5055588;28;20041;-65
2022/10/02 02:21:33;;;;;;;25.00;6.20;;;17.60;99.90;;;17.88;78.92;101286.56;5055286;28;20049;-66
2022/10/02 02:24:09;;;;;;;27.02;6.13;;;17.60;99.90;;;17.92;78.83;101288.25;5055249;28;20051;-66
2022/10/02 02:26:42;;;;;;;25.17;7.05;;;17.60;99.90;;;18.00;78.57;101292.44;5055586;28;20055;-68
2022/10/02 02:29:13;;;;;;;30.40;6.90;;;17.70;99.90;;;17.86;78.75;101293.75;5055055;28;20128;-68
2022/10/02 02:31:49;;;;;;;20.50;6.18;;;17.60;99.90;;;17.95;78.71;101290.81;5055101;28;20053;-68
2022/10/02 02:34:22;;;;;;;30.45;6.13;;;17.60;99.90;;;17.94;78.42;101292.59;5054613;28;20049;-69
2022/10/02 02:36:57;;;;;;;27.45;6.53;;;17.70;99.90;;;17.96;78.55;101289.91;5055068;28;20041;-68
2022/10/02 02:39:34;;;;;;;21.63;5.55;;;17.60;99.90;;;17.95;78.64;101296.16;5054907;28;20041;-68
2022/10/02 02:42:07;;;;;;;23.83;6.55;;;17.60;99.90;;;17.89;78.52;101299.00;5054880;28;20490;-68
2022/10/02 02:44:41;;;;;;;19.85;5.22;;;17.60;99.90;;;17.85;78.83;101292.88;5054995;28;20053;-68
2022/10/02 02:47:17;;;;;;;23.17;6.55;;;17.50;99.90;;;17.80;78.74;101297.47;5070070;28;20057;-71
2022/10/02 02:49:51;;;;;;;23.88;5.70;;;17.50;99.90;;;17.93;78.39;101298.88;5054861;28;20513;-71
2022/10/02 02:52:27;;;;;;;25.85;6.15;;;17.60;99.90;;;17.78;78.27;101290.41;5054836;28;20049;-70
2022/10/02 02:55:03;;;;;;;19.90;6.03;;;17.50;99.90;;;17.83;77.88;101296.50;5054470;28;20059;-71
2022/10/02 02:57:38;;;;;;;18.85;5.70;;;17.50;99.90;;;17.70;78.41;101298.63;5053406;28;20514;-71
2022/10/02 03:00:08;;;;;;;26.60;6.90;;;17.40;99.90;;;17.67;78.38;101308.56;5054643;28;20049;-70
2022/10/02 03:02:38;;;;;;;31.42;6.80;;;17.40;99.90;;;17.66;78.03;101307.66;5054201;28;20395;-71
2022/10/02 03:05:13;;;;;;;19.35;6.43;;;17.40;99.90;;;17.42;78.34;101294.88;5054215;28;20047;-71
2022/10/02 03:07:53;;;;;;;23.02;5.90;;;17.30;99.90;;;17.51;78.42;101308.06;5054204;28;20064;-71
2022/10/02 03:10:39;;;;;;;19.43;5.43;;;17.20;99.90;;;17.53;78.11;101297.31;5054195;28;20045;-71
2022/10/02 03:13:31;;;;;;;20.63;6.40;;;17.20;99.90;;;17.54;78.37;101317.78;5069559;28;20654;-71
2022/10/02 03:16:18;;;;;;;22.85;5.95;;;17.20;99.90;;;17.53;78.00;101310.69;5054107;28;20060;-71
2022/10/02 03:19:02;;;;;;;22.88;5.88;;;17.20;99.90;;;17.51;77.96;101317.88;5069549;28;20131;-70
2022/10/02 03:21:39;;;;;;;20.38;6.03;;;17.10;99.90;;;17.63;77.78;101317.56;5053022;28;20053;-70
2022/10/02 03:24:16;;;;;;;17.55;5.18;;;17.20;99.90;;;17.64;77.48;101316.63;5053947;28;20041;-70
2022/10/02 03:26:53;;;;;;;17.20;5.38;;;17.20;99.90;;;17.69;77.18;101322.78;5054113;28;20045;-71
2022/10/02 03:29:30;;;;;;;22.00;5.75;;;17.40;99.90;;;17.66;77.41;101317.47;5053793;28;20045;-71
2022/10/02 03:32:00;;;;;;;20.02;5.70;;;17.40;99.90;;;17.78;77.38;101317.16;5053830;28;20118;-70
2022/10/02 03:34:32;;;;;;;24.83;6.20;;;17.40;99.90;;;17.70;77.71;101320.03;5053985;28;20147;-70
2022/10/02 03:37:02;;;;;;;23.67;6.03;;;17.40;99.90;;;17.80;77.63;101313.53;5053878;28;20076;-71
2022/10/02 03:39:30;;;;;;;19.27;5.77;;;17.40;99.90;;;17.79;77.88;101308.19;5054183;28;20115;-71
2022/10/02 03:41:59;;;;;;;20.98;6.32;;;17.50;99.90;;;17.85;77.69;101319.63;5053640;28;20372;-71
2022/10/02 03:44:27;;;;;;;19.38;5.68;;;17.50;99.90;;;17.89;77.42;101315.06;5053662;28;20415;-70
2022/10/02 03:46:55;;;;;;;19.52;5.55;;;17.50;99.90;;;17.89;77.35;101320.41;5052615;28;20057;-70
2022/10/02 03:49:24;;;;;;;23.38;6.30;;;17.60;99.90;;;17.86;77.58;101315.16;5053351;28;20049;-70
2022/10/02 03:51:53;;;;;;;18.08;5.32;;;17.60;99.90;;;17.86;77.63;101316.06;5053588;28;20068;-71
2022/10/02 03:54:22;;;;;;;22.73;5.80;;;17.50;99.90;;;17.81;77.97;101315.28;5053238;28;20051;-70
2022/10/02 03:56:55;;;;;;;19.75;5.65;;;17.50;99.90;;;17.74;78.18;101303.00;5053174;28;20045;-70
2022/10/02 03:59:38;;;;;;;23.45;5.53;;;17.40;99.90;;;17.66;78.29;101307.66;5053796;28;20432;-70
2022/10/02 04:02:15;;;;;;;18.90;5.53;;;17.30;99.90;;;17.75;78.28;101306.56;5053344;28;20043;-71
2022/10/02 04:04:51;;;;;;;22.65;6.65;;;17.40;99.90;;;17.80;78.28;101301.94;5053108;28;20049;-70
2022/10/02 04:07:27;;;;;;;20.63;5.63;;;17.40;99.90;;;17.56;78.89;101303.47;5053061;28;20045;-70
2022/10/02 04:10:14;;;;;;;20.70;5.43;;;17.30;99.90;;;17.72;78.92;101306.63;5053522;28;20049;-70
2022/10/02 04:12:47;;;;;;;19.95;5.97;;;17.30;99.90;;;17.73;78.55;101311.91;5053388;28;20049;-70
2022/10/02 04:15:21;;;;;;;19.27;5.97;;;17.40;99.90;;;17.69;78.76;101310.25;5052937;28;20067;-69
2022/10/02 04:17:53;;;;;;;25.55;6.20;;;17.30;99.90;;;17.66;79.00;101314.81;5052863;28;20055;-70
2022/10/02 04:20:34;;;;;;;19.63;6.32;;;17.30;99.90;;;17.59;78.87;101307.88;5052730;28;20052;-69
2022/10/02 04:23:12;;;;;;;20.75;5.72;;;17.30;99.90;;;17.64;78.87;101311.28;5052686;28;20049;-70
2022/10/02 04:25:46;;;;;;;23.95;5.78;;;17.30;99.90;;;17.55;79.32;101320.44;5052722;28;20410;-70
2022/10/02 04:28:20;;;;;;;19.63;5.63;;;17.20;99.90;;;17.50;79.28;101324.16;5052717;28;20055;-70
2022/10/02 04:30:51;;;;;;;24.27;5.78;;;17.20;99.90;;;17.44;79.66;101324.28;5051752;28;20444;-71
2022/10/02 04:33:22;;;;;;;23.80;5.97;;;17.10;99.90;;;17.43;79.62;101333.22;5068340;28;20406;-70
2022/10/02 04:36:06;;;;;;;19.92;5.78;;;17.10;99.90;;;17.41;79.86;101316.31;5052647;28;20055;-72
2022/10/02 04:39:30;;;;;;;24.63;6.43;;;17.10;99.90;;;17.50;79.71;101329.53;5052945;28;20044;-70
2022/10/02 04:42:21;;;;;;;19.27;5.88;;;17.10;99.90;;;17.33;80.47;101329.88;5038070;28;20057;-70
2022/10/02 04:45:29;;;;;;;20.27;5.80;;;17.00;99.90;;;17.47;80.17;101342.91;5052791;28;20044;-70
2022/10/02 04:48:40;;;;;;;22.02;6.13;;;17.00;99.90;;;17.53;80.05;101348.16;5052430;28;20060;-70
2022/10/02 04:51:28;;;;;;;21.23;5.20;;;17.10;99.90;;;17.35;80.21;101353.91;5052774;28;20216;-69
2022/10/02 04:54:30;;;;;;;17.88;5.35;;;17.10;99.90;;;17.25;80.58;101365.78;5052491;28;20056;-70
2022/10/02 04:57:27;;;;;;;27.00;5.60;;;16.90;99.90;;;17.25;80.47;101373.78;5052492;28;20513;-70
2022/10/02 05:00:08;;;;;;;21.80;5.45;;;16.90;99.90;;;17.12;80.45;101368.72;5052508;28;20435;-70
2022/10/02 05:03:00;;;;;;;21.33;5.40;;;16.80;99.90;;;17.03;80.59;101363.56;5052415;28;20049;-70
2022/10/02 05:05:53;;;;;;;21.05;5.72;;;16.70;99.90;;;17.11;80.69;101374.97;5052551;28;20052;-69
2022/10/02 05:08:50;;;;;;;17.23;5.47;;;16.70;99.90;;;17.00;80.96;101387.72;5053177;28;20041;-70
2022/10/02 05:11:43;;;;;;;18.38;5.50;;;16.70;99.90;;;16.93;81.11;101382.53;5052983;28;20048;-71
2022/10/02 05:14:49;;;;;;;19.30;5.38;;;16.60;99.90;;;16.96;80.49;101378.00;5052321;28;20041;-70
2022/10/02 05:17:36;;;;;;;21.83;5.70;;;16.60;99.90;;;16.98;80.15;101385.97;5052243;28;20045;-71
2022/10/02 05:20:28;;;;;;;22.38;5.80;;;16.60;99.90;;;16.88;80.52;101385.31;5052202;28;20051;-70
2022/10/02 05:23:13;;;;;;;19.63;5.75;;;16.60;99.90;;;16.97;80.16;101387.78;5052444;28;20052;-70
2022/10/02 05:26:03;;;;;;;21.13;5.65;;;16.60;99.90;;;16.94;79.85;101390.50;5052336;28;20380;-70
2022/10/02 05:29:02;;;;;;;21.92;5.22;;;16.60;99.90;;;16.81;80.25;101402.38;5052129;28;20040;-70
2022/10/02 05:31:49;;;;;;;22.08;6.25;;;16.50;99.90;;;16.98;79.78;101413.59;5052174;28;20052;-70
2022/10/02 05:34:39;;;;;;;20.17;5.50;;;16.50;99.90;;;17.01;78.84;101392.13;5050972;28;20053;-70
2022/10/02 05:37:33;;;;;;;17.13;5.43;;;16.60;99.90;;;17.01;78.12;101393.94;5052345;28;20379;-70
2022/10/02 05:40:13;;;;;;;21.35;4.95;;;16.60;99.90;;;16.93;77.84;101399.47;5052045;28;20406;-70
2022/10/02 05:42:48;;;;;;;18.45;5.68;;;16.60;99.90;;;16.92;77.97;101408.38;5052435;28;20043;-71
2022/10/02 05:45:27;;;;;;;16.52;5.88;;;16.50;99.90;;;16.97;77.88;101394.91;5051936;28;20045;-70
2022/10/02 05:48:05;;;;;;;26.17;5.93;;;16.60;99.90;;;17.13;77.77;101407.00;5052027;28;20075;-70
2022/10/02 05:50:36;;;;;;;17.08;5.50;;;16.70;99.90;;;17.12;77.86;101422.19;5051909;28;20376;-70
2022/10/02 05:53:16;;;;;;;21.88;5.82;;;16.80;99.90;;;17.17;77.74;101422.06;5050497;28;20061;-72
2022/10/02 05:55:52;;;;;;;19.67;5.63;;;16.80;99.90;;;17.03;78.71;101421.53;5052455;28;20049;-71
2022/10/02 05:58:27;;;;;;;20.02;6.00;;;16.70;99.90;;;16.94;78.77;101430.59;5051819;28;20051;-71
2022/10/02 06:01:05;;;;;;;17.85;5.20;;;16.60;99.90;;;16.93;78.53;101401.25;5052087;28;20048;-71
2022/10/02 06:03:42;;;;;;;18.05;5.43;;;16.70;99.90;;;17.00;78.48;101437.59;5051960;28;20049;-70
2022/10/02 06:06:17;;;;;;;18.27;6.07;;;16.70;99.90;;;17.01;78.97;101434.88;5052005;28;20052;-71
2022/10/02 06:08:49;;;;;;;18.05;5.82;;;16.70;99.90;;;17.04;78.99;101426.81;5052000;28;20045;-70
2022/10/02 06:11:24;;;;;;;23.88;5.85;;;16.70;99.90;;;17.23;78.29;101429.94;5054590;28;20048;-70
2022/10/02 06:13:58;;;;;;;25.00;6.13;;;16.80;99.90;;;17.16;78.49;101431.00;5055220;28;20045;-71
2022/10/02 06:16:36;;;;;;;20.35;5.55;;;16.80;99.90;;;17.10;78.35;101431.16;5055086;28;20124;-70
2022/10/02 06:19:16;;;;;;;17.38;4.85;;;16.80;99.90;;;16.97;78.40;101433.22;5055091;28;20101;-70
2022/10/02 06:21:51;;;;;;;16.23;5.22;;;16.70;99.90;;;16.99;78.38;101452.75;5055356;28;20049;-70
2022/10/02 06:24:25;;;;;;;17.50;6.43;;;16.70;99.90;;;16.92;78.38;101455.59;5055144;28;20124;-71
2022/10/02 06:27:02;;;;;;;23.90;6.45;;;16.60;99.90;;;17.00;78.50;101457.19;5055224;28;20044;-70
2022/10/02 06:29:39;;;;;;;18.85;5.30;;;16.60;99.90;;;17.00;78.21;101465.22;5054936;28;20099;-70
2022/10/02 06:32:19;;;;;;;24.05;6.47;;;16.60;99.90;;;17.14;78.40;101465.81;5054901;28;20049;-70
2022/10/02 06:34:48;;;;;;;19.67;6.18;;;16.70;99.90;;;17.21;77.87;101466.53;5055127;28;20390;-69
2022/10/02 06:37:36;;;;;;;21.90;5.68;;;16.80;99.90;;;17.04;77.52;101476.72;5054872;28;20384;-70
2022/10/02 06:40:34;;;;;;;21.15;5.43;;;16.70;99.90;;;16.97;77.36;101457.28;5054619;28;20045;-70
2022/10/02 06:43:09;;;;;;;21.33;5.78;;;16.70;99.90;;;17.21;77.30;101479.91;5054358;28;20049;-71
2022/10/02 06:45:46;;;;;;;19.75;5.80;;;16.80;99.90;;;17.24;76.99;101479.84;5054607;28;20479;-70
2022/10/02 06:48:25;;;;;;;20.63;5.45;;;16.90;99.90;;;17.27;76.65;101478.88;5054514;28;20075;-71
2022/10/02 06:51:01;;;;;;;16.55;5.82;;;16.90;99.90;;;17.29;76.61;101477.94;5070259;28;20040;-71
2022/10/02 06:53:56;;;;;;;18.05;5.53;;;16.90;99.90;;;17.31;76.99;101492.16;5054851;28;20141;-69
2022/10/02 06:56:43;;;;;;;18.80;5.60;;;16.90;99.90;;;17.41;76.97;101480.34;5053376;28;20467;-69
2022/10/02 06:59:30;;;;;;;22.92;5.78;;;17.00;99.90;;;17.35;76.70;101471.59;5054373;28;20077;-71
2022/10/02 07:02:13;;;;;;;22.02;6.40;;;17.10;99.90;;;17.54;76.65;101497.03;5054350;28;20055;-71
2022/10/02 07:05:00;;;;;;;25.90;5.80;;;17.10;99.90;;;17.53;75.86;101489.94;5054162;28;20049;-71
2022/10/02 07:07:48;;;;;;;20.42;5.63;;;17.20;99.90;;;17.71;74.87;101494.88;5054266;28;20078;-71
2022/10/02 07:10:33;;;;;;;27.80;6.03;;;17.30;99.90;;;17.82;74.56;101490.13;5054146;28;20359;-71
2022/10/02 07:13:29;;;;;;;22.73;5.68;;;17.40;99.90;;;17.88;74.22;101492.66;5054265;28;20053;-71
2022/10/02 07:16:20;;;;;;;22.08;5.85;;;17.60;99.90;;;17.86;74.24;101499.84;5054032;28;20052;-71
2022/10/02 07:19:26;;;;;;;21.88;6.45;;;17.50;99.90;;;17.82;74.39;101496.38;5053976;28;20102;-71
2022/10/02 07:22:14;;;;;;;20.00;5.60;;;17.60;99.90;;;17.66;75.03;101497.66;5053723;28;20044;-71
2022/10/02 07:25:29;;;;;;;27.17;6.00;;;17.40;99.90;;;17.70;75.18;101507.38;5053823;28;20371;-71
2022/10/02 07:28:09;;;;;;;25.10;5.80;;;17.30;99.90;;;17.83;75.15;101497.22;5054346;28;20037;-71
2022/10/02 07:30:47;;;;;;;19.23;5.50;;;17.40;99.90;;;17.81;75.10;101499.06;5053665;28;20080;-71
2022/10/02 07:33:32;;;;;;;15.40;4.95;;;17.40;99.90;;;17.95;74.36;101507.66;5052694;28;20056;-71
2022/10/02 07:36:09;;;;;;;19.80;6.15;;;17.50;99.90;;;17.89;74.56;101514.03;5052537;28;20045;-72
2022/10/02 07:39:00;;;;;;;18.67;5.47;;;17.50;99.90;;;17.84;74.89;101510.59;5053698;28;20044;-71
2022/10/02 07:42:20;;;;;;;23.33;6.55;;;17.50;99.90;;;17.83;74.89;101511.50;5054153;28;20077;-71
2022/10/02 07:45:10;;;;;;;16.52;5.55;;;17.50;99.90;;;17.96;74.57;101514.78;5007093;28;20052;-71
2022/10/02 07:48:02;;;;;;;19.33;5.53;;;17.60;99.90;;;17.89;74.84;101511.34;5053887;28;20053;-70
2022/10/02 07:50:40;;;;;;;16.58;5.20;;;17.60;99.90;;;18.03;74.43;101521.72;5053522;28;20099;-71
2022/10/02 07:53:17;;;;;;;19.70;6.15;;;17.60;99.90;;;18.18;74.21;101524.03;5053701;28;20703;-71
2022/10/02 07:55:53;;;;;;;24.70;5.80;;;17.80;99.90;;;17.99;73.69;101536.09;5054052;28;20457;-70
2022/10/02 07:58:33;;;;;;;18.13;4.90;;;17.70;99.90;;;18.13;73.83;101538.44;5053581;28;20064;-75
2022/10/02 08:01:04;;;;;;;19.40;6.28;;;17.80;99.90;;;18.25;73.39;101539.03;5053584;28;20041;-74
2022/10/02 08:03:37;;;;;;;21.95;5.60;;;17.90;99.90;;;17.94;74.18;101504.09;5053944;28;20037;-74
2022/10/02 08:06:07;;;;;;;19.50;5.22;;;17.80;99.90;;;18.29;74.04;101545.19;5053689;28;20099;-74
2022/10/02 08:08:42;;;;;;;19.55;5.85;;;17.90;99.90;;;18.28;73.63;101554.13;5053686;28;20052;-73
2022/10/02 08:11:16;;;;;;;18.33;5.75;;;17.90;99.90;;;18.26;73.17;101543.47;5053795;28;20041;-72
2022/10/02 08:13:49;;;;;;;16.00;5.45;;;17.90;99.90;;;18.27;73.03;101553.28;5054173;28;20044;-70
2022/10/02 08:16:22;;;;;;;26.85;6.70;;;17.90;99.90;;;18.19;73.90;101554.38;5053517;28;20045;-70
2022/10/02 08:18:58;;;;;;;22.55;5.88;;;17.90;99.90;;;18.05;73.92;101552.03;5053400;28;20048;-70
2022/10/02 08:21:26;;;;;;;19.02;5.88;;;17.80;99.90;;;18.04;73.85;101569.00;5053176;28;20393;-70
2022/10/02 08:24:00;;;;;;;18.50;5.22;;;17.70;99.90;;;18.05;74.42;101562.75;5052751;28;20041;-70
2022/10/02 08:26:34;;;;;;;22.33;6.25;;;17.70;99.90;;;17.94;73.99;101575.50;5051894;28;20049;-70
2022/10/02 08:29:10;;;;;;;24.85;5.72;;;17.70;99.90;;;18.01;74.27;101582.47;5053446;28;20037;-73
2022/10/02 08:31:39;;;;;;;18.63;5.68;;;17.60;99.90;;;18.09;75.06;101591.22;5053138;28;20375;-74
2022/10/02 08:34:17;;;;;;;26.52;6.40;;;17.70;99.90;;;17.93;75.25;101590.69;5052515;28;20052;-70
2022/10/02 08:37:07;;;;;;;17.40;5.85;;;17.60;99.90;;;18.20;75.63;101591.81;5053234;28;20379;-76
2022/10/02 08:40:02;;;;;;;18.13;5.60;;;17.80;99.90;;;18.36;74.38;101595.91;5068251;28;20498;-73
2022/10/02 08:43:16;;;;;;;26.30;5.78;;;18.00;99.90;;;18.19;73.68;101594.53;5052546;28;20090;-72
2022/10/02 08:46:40;;;;;;;20.33;5.63;;;17.90;99.90;;;18.48;73.74;101611.72;5052328;28;20048;-73
2022/10/02 08:49:57;;;;;;;18.98;5.50;;;18.00;99.90;;;18.61;72.83;101607.78;5046018;28;20049;-73
2022/10/02 08:53:22;;;;;;;22.20;6.15;;;18.20;99.90;;;18.56;72.29;101590.94;5052417;28;20048;-77
2022/10/02 08:56:22;;;;;;;13.52;4.85;;;18.20;99.90;;;17.96;72.28;101501.41;5052664;28;20515;-76
2022/10/02 08:59:58;;;;;;;16.48;5.35;;;18.20;99.90;;;18.45;72.50;101611.78;5043620;28;20051;-73
2022/10/02 09:03:37;;;;;;;16.45;5.65;;;18.20;99.90;;;18.25;73.89;101614.03;5050927;28;20076;-75
2022/10/02 09:06:46;;;;;;;19.77;6.00;;;18.00;99.90;;;18.09;74.20;101619.78;5052754;28;20091;-71
2022/10/02 09:10:11;;;;;;;17.35;5.60;;;17.80;99.90;;;18.07;74.27;101629.63;5012299;28;20057;-69
2022/10/02 09:13:17;;;;;;;19.10;6.10;;;17.80;99.90;;;17.97;73.68;101623.63;4968501;28;20496;-71
2022/10/02 09:15:54;;;;;;;19.50;5.85;;;17.70;99.90;;;18.14;73.67;101621.41;5052607;28;20048;-70
2022/10/02 09:18:44;;;;;;;17.58;5.43;;;17.70;99.90;;;18.19;73.81;101624.00;5052751;28;20041;-70
2022/10/02 09:21:16;;;;;;;19.02;6.43;;;17.90;99.90;;;18.48;73.72;101642.97;5052282;28;20052;-71
2022/10/02 09:24:24;;;;;;;18.15;5.50;;;18.10;99.90;;;18.57;72.33;101613.25;5051883;28;20048;-70
2022/10/02 09:27:43;;;;;;;19.77;5.65;;;18.30;99.90;;;18.76;70.92;101638.66;5052457;28;20049;-70
2022/10/02 09:30:28;;;;;;;20.20;5.60;;;18.40;99.90;;;18.63;69.66;101642.59;5015970;28;20061;-71
2022/10/02 09:33:45;;;;;;;17.83;5.25;;;18.30;99.90;;;18.79;70.25;101642.16;5051965;28;20063;-70
2022/10/02 09:37:06;;;;;;;19.65;5.80;;;18.40;99.90;;;18.98;68.86;101639.00;5052538;28;20045;-70
2022/10/02 09:40:55;;;;;;;18.23;5.53;;;18.60;99.90;;;18.88;67.06;101641.03;5037436;28;20132;-70
2022/10/02 09:44:17;;;;;;;16.10;5.82;;;18.60;99.90;;;19.12;67.64;101644.88;5029085;28;20168;-70
2022/10/02 09:48:00;;;;;;;16.25;5.22;;;18.80;99.90;;;19.24;66.16;101660.66;5047942;28;20053;-70
2022/10/02 09:51:04;;;;;;;19.35;5.32;;;18.90;99.90;;;19.03;67.16;101658.53;5016447;28;20113;-69
2022/10/02 09:54:01;;;;;;;20.70;5.72;;;18.70;99.90;;;19.27;67.37;101663.22;5054377;28;20434;-69
2022/10/02 09:57:19;;;;;;;17.02;5.43;;;18.90;99.90;;;19.59;66.63;101660.53;5055877;28;20135;-71
2022/10/02 10:00:21;;;;;;;18.05;5.47;;;19.20;99.90;;;19.77;65.75;101673.44;5055435;28;20124;-70
2022/10/02 10:03:35;;;;;;;17.40;5.40;;;19.50;99.90;;;19.56;65.94;101676.75;5055391;28;20045;-70
2022/10/02 10:06:37;;;;;;;18.13;5.65;;;19.40;99.90;;;19.49;66.65;101678.72;5055200;28;20064;-71
2022/10/02 10:10:03;;;;;;;16.13;5.82;;;19.30;99.90;;;19.32;66.71;101677.38;5055561;28;20052;-70
2022/10/02 10:13:24;;;;;;;16.33;5.57;;;19.10;99.90;;;19.19;67.10;101700.13;5040189;28;20060;-71
2022/10/02 10:16:34;;;;;;;16.88;5.35;;;18.90;99.90;;;19.23;67.84;101699.13;5036411;28;20053;-70
2022/10/02 10:20:00;;;;;;;15.63;5.43;;;18.90;99.90;;;18.80;65.94;101707.38;5070735;28;20108;-71
2022/10/02 10:23:20;;;;;;;16.77;5.03;;;18.60;99.90;;;18.98;66.59;101706.03;5039252;28;20307;-70
2022/10/02 10:26:18;;;;;;;17.63;5.10;;;18.60;99.90;;;18.99;66.19;101706.00;5055220;28;20060;-71
2022/10/02 10:29:12;;;;;;;24.40;6.22;;;18.60;99.90;;;18.94;66.68;101707.91;5054895;28;20053;-69
2022/10/02 10:32:32;;;;;;;16.73;5.63;;;18.60;99.90;;;19.20;65.73;101709.94;5054855;28;20037;-71
2022/10/02 10:35:24;;;;;;;18.75;6.15;;;18.80;99.90;;;19.24;65.84;101715.16;5052339;28;20163;-71
2022/10/02 10:41:45;;;;;;;17.42;5.68;;;18.90;99.90;;;19.16;65.98;101719.88;5054625;28;20037;-70
2022/10/02 10:44:51;;;;;;;20.65;6.03;;;18.80;99.90;;;18.88;66.80;101716.13;5055120;28;20055;-71
2022/10/02 10:47:46;;;;;;;19.48;5.60;;;18.70;99.90;;;19.07;66.90;101724.56;5054717;28;20455;-71
2022/10/02 10:50:49;;;;;;;19.15;5.60;;;18.80;99.90;;;18.86;67.46;101726.00;5054516;28;20044;-71
2022/10/02 10:54:03;;;;;;;16.20;5.30;;;18.60;99.90;;;18.85;66.32;101719.75;5053500;28;20139;-71
2022/10/02 10:56:46;;;;;;;14.75;4.82;;;18.50;99.90;;;18.89;65.67;101742.03;5054157;28;20049;-71
2022/10/02 10:59:57;;;;;;;18.70;5.68;;;18.60;99.90;;;18.90;66.59;101733.94;5054406;28;20455;-70
2022/10/02 11:02:56;;;;;;;20.52;5.45;;;18.60;99.90;;;19.11;65.99;101735.19;5054649;28;20051;-72
2022/10/02 11:06:02;;;;;;;14.23;4.75;;;18.70;99.90;;;19.43;66.15;101753.16;5054718;28;20492;-70
2022/10/02 11:09:32;;;;;;;20.88;5.30;;;19.00;99.90;;;19.54;64.29;101749.28;5038863;28;20083;-71
2022/10/02 11:12:37;;;;;;;16.23;5.38;;;19.20;99.90;;;19.61;64.59;101749.97;5012429;28;20068;-73
2022/10/02 11:15:37;;;;;;;16.90;5.03;;;19.30;99.90;;;19.29;62.53;101758.88;5054442;28;20084;-73
2022/10/02 11:18:27;;;;;;;15.75;5.47;;;19.10;99.90;;;19.34;63.43;101767.69;5054204;28;20120;-73
2022/10/02 11:21:27;;;;;;;15.00;5.03;;;19.00;99.90;;;19.35;63.07;101753.38;5054385;28;20124;-72
2022/10/02 11:24:35;;;;;;;16.25;5.57;;;19.00;99.90;;;19.32;62.13;101756.13;5053902;28;20063;-69
2022/10/02 11:27:29;;;;;;;16.20;5.00;;;18.90;99.90;;;19.39;62.47;101762.22;5051626;28;20056;-69